createdAt,value
2019-01-10T00:01:01.316Z,95237.29
2019-01-10T00:03:33.913Z,95240.08
2019-01-10T00:06:07.681Z,95247.45
2019-01-10T00:08:40.321Z,95245.40
2019-01-10T00:11:16.533Z,95246.37
2019-01-10T00:13:49.226Z,95247.81
2019-01-10T00:16:21.794Z,95246.31
2019-01-10T00:18:54.377Z,95244.99
2019-01-10T00:21:27.159Z,95245.98
2019-01-10T00:23:59.850Z,95242.27
2019-01-10T00:26:32.796Z,95251.33
2019-01-10T00:29:05.466Z,95252.41
2019-01-10T00:31:38.157Z,95256.31
2019-01-10T00:34:10.880Z,95255.16
2019-01-10T00:36:43.577Z,95255.80
2019-01-10T00:39:16.160Z,95250.63
2019-01-10T00:41:48.814Z,95254.94
2019-01-10T00:44:21.399Z,95258.39
2019-01-10T00:46:53.971Z,95263.05
2019-01-10T00:49:26.602Z,95258.66
2019-01-10T00:51:59.208Z,95263.15
2019-01-10T00:54:31.812Z,95262.63
2019-01-10T00:57:04.538Z,95262.72
2019-01-10T00:59:40.535Z,95257.11
2019-01-10T01:02:13.174Z,95263.48
2019-01-10T01:04:45.899Z,95258.62
2019-01-10T01:07:18.612Z,95265.74
2019-01-10T01:09:51.291Z,95271.32
2019-01-10T01:12:23.960Z,95277.63
2019-01-10T01:14:56.640Z,95276.18
2019-01-10T01:17:29.278Z,95282.42
2019-01-10T01:20:01.854Z,95281.41
2019-01-10T01:22:34.424Z,95282.84
2019-01-10T01:25:08.618Z,95284.95
2019-01-10T01:27:41.318Z,95285.41
2019-01-10T01:30:17.950Z,95289.45
2019-01-10T01:32:50.628Z,95290.43
2019-01-10T01:35:23.186Z,95293.09
2019-01-10T01:37:56.017Z,95293.45
2019-01-10T01:40:28.735Z,95294.86
2019-01-10T01:43:07.317Z,95305.73
2019-01-10T01:45:35.587Z,95306.55
2019-01-10T01:48:08.251Z,95297.42
2019-01-10T01:50:40.920Z,95295.19
2019-01-10T01:53:13.543Z,95295.55
2019-01-10T01:55:46.150Z,95306.84
2019-01-10T01:58:18.883Z,95321.89
2019-01-10T02:00:50.708Z,95306.03
2019-01-10T02:03:23.346Z,95316.28
2019-01-10T02:05:55.894Z,95322.05
2019-01-10T02:08:28.479Z,95320.80
2019-01-10T02:11:01.078Z,95327.11
2019-01-10T02:13:33.681Z,95326.19
2019-01-10T02:16:06.388Z,95328.39
2019-01-10T02:18:39.017Z,95328.20
2019-01-10T02:21:11.630Z,95330.79
2019-01-10T02:23:44.239Z,95322.13
2019-01-10T02:26:16.860Z,95337.13
2019-01-10T02:28:49.434Z,95345.08
2019-01-10T02:31:22.109Z,95345.80
2019-01-10T02:33:54.701Z,95341.66
2019-01-10T02:36:27.286Z,95350.56
2019-01-10T02:38:59.908Z,95350.70
2019-01-10T02:41:32.431Z,95353.41
2019-01-10T02:44:05.224Z,95353.41
2019-01-10T02:46:37.782Z,95359.66
2019-01-10T02:49:10.423Z,95360.94
2019-01-10T02:51:42.976Z,95363.23
2019-01-10T02:54:15.592Z,95360.41
2019-01-10T02:56:48.221Z,95357.91
2019-01-10T02:59:20.852Z,95361.47
2019-01-10T03:01:53.439Z,95362.08
2019-01-10T03:04:26.078Z,95360.91
2019-01-10T03:06:58.708Z,95362.54
2019-01-10T03:09:31.292Z,95366.20
2019-01-10T03:12:04.051Z,95366.70
2019-01-10T03:14:36.700Z,95371.17
2019-01-10T03:17:09.293Z,95369.86
2019-01-10T03:19:41.869Z,95376.86
2019-01-10T03:22:14.482Z,95380.13
2019-01-10T03:24:47.085Z,95377.68
2019-01-10T03:27:19.649Z,95374.81
2019-01-10T03:29:52.363Z,95370.71
2019-01-10T03:32:25.025Z,95369.88
2019-01-10T03:34:57.719Z,95370.70
2019-01-10T03:37:30.381Z,95365.47
2019-01-10T03:40:03.207Z,95374.00
2019-01-10T03:42:35.878Z,95367.14
2019-01-10T03:45:11.976Z,95375.97
2019-01-10T03:47:44.613Z,95369.24
2019-01-10T03:50:17.793Z,95365.83
2019-01-10T03:52:50.375Z,95378.38
2019-01-10T03:55:23.076Z,95376.08
2019-01-10T03:57:55.742Z,95374.79
2019-01-10T04:00:28.328Z,95380.17
2019-01-10T04:03:00.977Z,95383.13
2019-01-10T04:05:35.636Z,95378.98
2019-01-10T04:08:08.265Z,95376.97
2019-01-10T04:10:40.854Z,95382.02
2019-01-10T04:13:13.503Z,95383.42
2019-01-10T04:15:46.112Z,95376.91
2019-01-10T04:18:18.948Z,95384.80
2019-01-10T04:20:51.546Z,95393.05
2019-01-10T04:23:24.165Z,95393.54
2019-01-10T04:25:56.849Z,95388.23
2019-01-10T04:28:29.476Z,95384.20
2019-01-10T04:31:02.319Z,95385.36
2019-01-10T04:33:35.036Z,95393.28
2019-01-10T04:36:07.715Z,95381.06
2019-01-10T04:38:40.349Z,95380.11
2019-01-10T04:41:12.984Z,95373.06
2019-01-10T04:43:45.549Z,95373.66
2019-01-10T04:46:18.238Z,95371.97
2019-01-10T04:48:50.851Z,95370.75
2019-01-10T04:51:23.441Z,95379.38
2019-01-10T04:53:56.087Z,95384.25
2019-01-10T04:56:28.663Z,95391.55
2019-01-10T04:59:01.294Z,95395.23
2019-01-10T05:01:33.873Z,95392.75
2019-01-10T05:04:06.574Z,95386.80
2019-01-10T05:06:39.151Z,95394.42
2019-01-10T05:09:11.777Z,95398.72
2019-01-10T05:11:44.519Z,95400.06
2019-01-10T05:14:17.172Z,95396.87
2019-01-10T05:16:50.786Z,95396.09
2019-01-10T05:19:23.388Z,95398.09
2019-01-10T05:21:56.122Z,95402.81
2019-01-10T05:24:28.725Z,95406.41
2019-01-10T05:27:01.332Z,95413.76
2019-01-10T05:29:33.906Z,95403.98
2019-01-10T05:32:06.733Z,95404.94
2019-01-10T05:34:39.320Z,95414.02
2019-01-10T05:37:11.990Z,95416.22
2019-01-10T05:39:47.662Z,95413.20
2019-01-10T05:42:19.412Z,95413.33
2019-01-10T05:44:51.997Z,95418.06
2019-01-10T05:47:24.657Z,95426.80
2019-01-10T05:49:57.292Z,95427.92
2019-01-10T05:52:29.902Z,95426.56
2019-01-10T05:55:03.415Z,95429.10
2019-01-10T05:57:35.933Z,95431.30
2019-01-10T06:00:13.947Z,95434.56
2019-01-10T06:02:46.527Z,95440.27
2019-01-10T06:05:19.140Z,95446.47
2019-01-10T06:07:51.835Z,95453.89
2019-01-10T06:10:27.798Z,95451.45
2019-01-10T06:13:00.711Z,95461.04
2019-01-10T06:15:33.355Z,95460.66
2019-01-10T06:18:06.985Z,95461.24
2019-01-10T06:20:39.661Z,95461.83
2019-01-10T06:23:12.315Z,95456.37
2019-01-10T06:25:45.019Z,95474.41
2019-01-10T06:28:17.635Z,95467.96
2019-01-10T06:30:50.339Z,95468.42
2019-01-10T06:33:22.936Z,95470.89
2019-01-10T06:35:55.571Z,95467.25
2019-01-10T06:38:28.146Z,95466.34
2019-01-10T06:41:00.887Z,95481.34
2019-01-10T06:43:33.528Z,95489.14
2019-01-10T06:46:06.222Z,95493.67
2019-01-10T06:48:38.862Z,95487.04
2019-01-10T06:51:13.651Z,95489.39
2019-01-10T06:53:48.416Z,95493.14
2019-01-10T06:56:21.049Z,95496.86
2019-01-10T06:58:53.653Z,95492.66
2019-01-10T07:01:26.289Z,95497.19
2019-01-10T07:03:58.069Z,95502.06
2019-01-10T07:06:30.656Z,95508.45
2019-01-10T07:09:03.279Z,95502.52
2019-01-10T07:11:35.920Z,95518.57
2019-01-10T07:14:08.849Z,95523.47
2019-01-10T07:16:41.936Z,95522.56
2019-01-10T07:19:15.984Z,95531.48
2019-01-10T07:21:57.592Z,95531.36
2019-01-10T07:24:30.210Z,95533.67
2019-01-10T07:27:02.763Z,95543.91
2019-01-10T07:29:35.338Z,95540.28
2019-01-10T07:32:07.915Z,95546.92
2019-01-10T07:34:40.582Z,95549.03
2019-01-10T07:37:13.257Z,95548.45
2019-01-10T07:39:45.875Z,95554.60
2019-01-10T07:42:18.468Z,95557.69
2019-01-10T07:44:51.790Z,95562.16
2019-01-10T07:47:29.005Z,95558.73
2019-01-10T07:50:02.758Z,95558.52
2019-01-10T07:52:35.342Z,95569.42
2019-01-10T07:55:08.522Z,95566.20
2019-01-10T07:57:41.173Z,95568.88
2019-01-10T08:00:16.228Z,95574.09
2019-01-10T08:02:48.862Z,95567.55
2019-01-10T08:05:21.484Z,95579.66
2019-01-10T08:07:54.080Z,95576.85
2019-01-10T08:10:26.773Z,95584.39
2019-01-10T08:12:59.940Z,95579.13
2019-01-10T08:15:32.669Z,95589.45
2019-01-10T08:18:06.254Z,95594.90
2019-01-10T08:20:39.056Z,95604.57
2019-01-10T08:23:11.707Z,95598.81
2019-01-10T08:25:49.762Z,95595.72
2019-01-10T08:28:22.314Z,95600.73
2019-01-10T08:30:54.964Z,95599.62
2019-01-10T08:33:27.582Z,95611.82
2019-01-10T08:36:00.186Z,95603.91
2019-01-10T08:38:32.779Z,95607.75
2019-01-10T08:41:05.456Z,95603.80
2019-01-10T08:43:38.157Z,95611.63
2019-01-10T08:46:11.124Z,95611.89
2019-01-10T08:48:43.695Z,95610.84
2019-01-10T08:51:16.324Z,95614.54
2019-01-10T08:53:53.734Z,95622.81
2019-01-10T08:56:23.272Z,95620.14
2019-01-10T08:58:56.027Z,95623.11
2019-01-10T09:01:28.777Z,95621.61
2019-01-10T09:04:01.445Z,95619.56
2019-01-10T09:06:34.120Z,95625.23
2019-01-10T09:09:10.194Z,95621.10
2019-01-10T09:11:45.608Z,95625.84
2019-01-10T09:14:20.248Z,95629.57
2019-01-10T09:16:52.880Z,95624.39
2019-01-10T09:19:25.684Z,95630.76
2019-01-10T09:21:58.299Z,95635.19
2019-01-10T09:24:31.195Z,95629.78
2019-01-10T09:27:03.848Z,95627.05
2019-01-10T09:29:36.596Z,95635.47
2019-01-10T09:32:09.399Z,95632.49
2019-01-10T09:34:42.060Z,95637.78
2019-01-10T09:37:15.206Z,95634.78
2019-01-10T09:39:47.960Z,95644.25
2019-01-10T09:42:20.753Z,95640.06
2019-01-10T09:44:53.389Z,95641.17
2019-01-10T09:47:26.105Z,95641.30
2019-01-10T09:49:58.654Z,95627.41
2019-01-10T09:52:31.482Z,95634.03
2019-01-10T09:55:04.093Z,95636.55
2019-01-10T09:57:36.652Z,95644.53
2019-01-10T10:00:15.738Z,95649.07
2019-01-10T10:02:48.423Z,95643.97
2019-01-10T10:05:21.186Z,95637.20
2019-01-10T10:07:54.299Z,95635.46
2019-01-10T10:10:26.961Z,95642.80
2019-01-10T10:12:59.566Z,95638.97
2019-01-10T10:15:32.366Z,95637.96
2019-01-10T10:18:04.913Z,95633.64
2019-01-10T10:20:37.561Z,95623.95
2019-01-10T10:23:10.208Z,95631.84
2019-01-10T10:25:42.854Z,95628.53
2019-01-10T10:28:15.415Z,95627.66
2019-01-10T10:30:48.056Z,95629.02
2019-01-10T10:33:20.759Z,95634.08
2019-01-10T10:35:53.429Z,95633.03
2019-01-10T10:38:26.052Z,95634.20
2019-01-10T10:40:59.225Z,95640.72
2019-01-10T10:43:31.933Z,95633.66
2019-01-10T10:46:05.168Z,95629.27
2019-01-10T10:48:37.814Z,95635.72
2019-01-10T10:51:10.809Z,95637.20
2019-01-10T10:53:43.410Z,95633.36
2019-01-10T10:56:16.015Z,95636.35
2019-01-10T10:58:49.066Z,95638.73
2019-01-10T11:01:21.755Z,95639.58
2019-01-10T11:03:54.832Z,95647.08
2019-01-10T11:06:27.506Z,95635.09
2019-01-10T11:09:09.061Z,95638.81
2019-01-10T11:11:35.806Z,95642.98
2019-01-10T11:14:08.440Z,95636.67
2019-01-10T11:16:40.968Z,95641.85
2019-01-10T11:19:13.626Z,95637.58
2019-01-10T11:21:46.231Z,95637.92
2019-01-10T11:24:18.871Z,95637.08
2019-01-10T11:26:53.448Z,95635.47
2019-01-10T11:29:25.950Z,95637.27
2019-01-10T11:31:59.685Z,95636.57
2019-01-10T11:34:32.440Z,95639.08
2019-01-10T11:37:05.114Z,95638.41
2019-01-10T11:39:37.750Z,95632.94
2019-01-10T11:42:10.617Z,95633.31
2019-01-10T11:44:43.218Z,95627.78
2019-01-10T11:47:15.945Z,95626.21
2019-01-10T11:49:48.724Z,95637.55
2019-01-10T11:52:21.459Z,95627.75
2019-01-10T11:54:54.259Z,95637.73
2019-01-10T11:57:26.937Z,95635.36
2019-01-10T11:59:59.719Z,95642.18
2019-01-10T12:02:36.434Z,95631.86
2019-01-10T12:05:09.075Z,95631.89
2019-01-10T12:07:41.700Z,95636.77
2019-01-10T12:10:16.550Z,95625.75
2019-01-10T12:12:49.241Z,95626.23
2019-01-10T12:15:22.092Z,95630.45
2019-01-10T12:17:54.328Z,95619.23
2019-01-10T12:20:27.043Z,95620.56
2019-01-10T12:22:59.710Z,95622.58
2019-01-10T12:25:32.573Z,95621.55
2019-01-10T12:28:06.268Z,95621.20
2019-01-10T12:30:38.914Z,95623.05
2019-01-10T12:33:11.739Z,95620.69
2019-01-10T12:35:44.452Z,95619.75
2019-01-10T12:38:17.033Z,95612.12
2019-01-10T12:40:49.749Z,95624.31
2019-01-10T12:43:22.382Z,95612.57
2019-01-10T12:45:55.275Z,95616.38
2019-01-10T12:48:27.927Z,95611.19
2019-01-10T12:51:00.523Z,95610.58
2019-01-10T12:53:33.352Z,95605.45
2019-01-10T12:56:05.983Z,95600.61
2019-01-10T12:58:38.607Z,95598.39
2019-01-10T13:01:11.493Z,95603.17
2019-01-10T13:03:44.397Z,95612.08
2019-01-10T13:06:17.069Z,95603.44
2019-01-10T13:08:49.736Z,95604.27
2019-01-10T13:11:22.727Z,95606.83
2019-01-10T13:13:55.691Z,95600.94
2019-01-10T13:16:28.601Z,95606.63
2019-01-10T13:19:01.182Z,95599.92
2019-01-10T13:21:33.737Z,95608.03
2019-01-10T13:24:06.456Z,95616.27
2019-01-10T13:26:39.161Z,95611.06
2019-01-10T13:29:11.852Z,95608.89
2019-01-10T13:31:45.236Z,95607.59
2019-01-10T13:34:17.490Z,95616.47
2019-01-10T13:36:50.217Z,95609.09
2019-01-10T13:39:22.924Z,95611.71
2019-01-10T13:41:55.686Z,95611.75
2019-01-10T13:44:28.309Z,95614.08
2019-01-10T13:47:00.943Z,95619.68
2019-01-10T13:49:33.553Z,95614.12
2019-01-10T13:52:06.208Z,95613.66
2019-01-10T13:54:39.032Z,95612.37
2019-01-10T13:57:14.865Z,95617.75
2019-01-10T13:59:47.543Z,95619.92
2019-01-10T14:02:20.206Z,95621.62
2019-01-10T14:04:52.914Z,95621.34
2019-01-10T14:07:25.639Z,95627.17
2019-01-10T14:09:58.342Z,95623.68
2019-01-10T14:12:30.994Z,95625.91
2019-01-10T14:15:03.739Z,95628.78
2019-01-10T14:17:36.338Z,95637.83
2019-01-10T14:20:11.591Z,95635.47
2019-01-10T14:22:44.185Z,95639.19
2019-01-10T14:25:17.058Z,95637.49
2019-01-10T14:27:49.833Z,95644.46
2019-01-10T14:30:44.023Z,95651.71
2019-01-10T14:33:16.789Z,95644.08
2019-01-10T14:35:49.421Z,95651.25
2019-01-10T14:38:22.960Z,95642.47
2019-01-10T14:40:56.004Z,95647.39
2019-01-10T14:43:28.673Z,95647.05
2019-01-10T14:46:01.352Z,95647.30
2019-01-10T14:48:33.922Z,95658.03
2019-01-10T14:51:06.651Z,95653.94
2019-01-10T14:53:39.355Z,95650.75
2019-01-10T14:56:11.988Z,95652.82
2019-01-10T14:58:44.550Z,95654.20
2019-01-10T15:01:17.187Z,95665.41
2019-01-10T15:03:49.755Z,95662.98
2019-01-10T15:06:22.396Z,95660.88
2019-01-10T15:08:54.975Z,95668.55
2019-01-10T15:11:27.674Z,95671.45
2019-01-10T15:14:00.257Z,95672.86
2019-01-10T15:16:32.987Z,95679.92
2019-01-10T15:19:05.983Z,95674.91
2019-01-10T15:21:38.608Z,95687.09
2019-01-10T15:24:12.263Z,95684.52
2019-01-10T15:26:44.987Z,95678.69
2019-01-10T15:29:17.658Z,95693.16
2019-01-10T15:31:50.342Z,95678.24
2019-01-10T15:34:22.922Z,95687.00
2019-01-10T15:36:55.597Z,95694.89
2019-01-10T15:39:28.277Z,95691.38
2019-01-10T15:42:00.947Z,95694.64
2019-01-10T15:44:33.576Z,95699.69
2019-01-10T15:47:06.836Z,95696.67
2019-01-10T15:49:39.482Z,95692.95
2019-01-10T15:52:13.241Z,95698.64
2019-01-10T15:54:46.162Z,95690.27
2019-01-10T15:57:19.193Z,95700.28
2019-01-10T15:59:51.934Z,95693.89
2019-01-10T16:02:24.534Z,95700.30
2019-01-10T16:04:57.132Z,95702.03
2019-01-10T16:07:29.837Z,95703.44
2019-01-10T16:10:02.427Z,95710.54
2019-01-10T16:12:35.094Z,95697.95
2019-01-10T16:15:10.804Z,95688.41
2019-01-10T16:17:43.499Z,95700.64
2019-01-10T16:20:17.378Z,95694.95
2019-01-10T16:22:50.065Z,95703.08
2019-01-10T16:25:22.658Z,95701.70
2019-01-10T16:27:55.216Z,95697.50
2019-01-10T16:30:31.895Z,95706.00
2019-01-10T16:33:04.538Z,95703.08
2019-01-10T16:35:37.187Z,95714.85
2019-01-10T16:38:09.845Z,95713.69
2019-01-10T16:40:42.421Z,95711.59
2019-01-10T16:43:15.019Z,95720.56
2019-01-10T16:45:47.941Z,95723.12
2019-01-10T16:48:19.776Z,95725.91
2019-01-10T16:50:52.710Z,95714.03
2019-01-10T16:53:25.389Z,95730.67
2019-01-10T16:55:58.090Z,95729.38
2019-01-10T16:58:32.937Z,95727.17
2019-01-10T17:01:05.504Z,95734.63
2019-01-10T17:03:38.124Z,95737.55
2019-01-10T17:06:09.938Z,95730.34
2019-01-10T17:08:42.760Z,95734.63
2019-01-10T17:11:15.401Z,95738.23
2019-01-10T17:13:48.153Z,95744.52
2019-01-10T17:16:20.741Z,95745.57
2019-01-10T17:18:53.494Z,95744.98
2019-01-10T17:21:26.137Z,95741.95
2019-01-10T17:23:58.763Z,95746.98
2019-01-10T17:32:44.411Z,95766.75
2019-01-10T17:35:21.991Z,95758.47
2019-01-10T17:37:54.650Z,95757.09
2019-01-10T17:40:27.224Z,95757.33
2019-01-10T17:43:00.134Z,95756.51
2019-01-10T17:45:35.727Z,95763.48
2019-01-10T17:48:11.509Z,95756.16
2019-01-10T17:50:44.115Z,95756.41
2019-01-10T17:53:16.730Z,95758.63
2019-01-10T17:55:49.389Z,95757.33
2019-01-10T17:58:22.167Z,95757.44
2019-01-10T18:00:54.728Z,95753.61
2019-01-10T18:03:27.326Z,95761.87
2019-01-10T18:05:59.990Z,95758.13
2019-01-10T18:08:32.740Z,95765.82
2019-01-10T18:11:11.351Z,95770.50
2019-01-10T18:13:43.928Z,95764.67
2019-01-10T18:16:16.554Z,95763.61
2019-01-10T18:18:49.238Z,95767.36
2019-01-10T18:21:21.874Z,95765.26
2019-01-10T18:23:54.651Z,95763.73
2019-01-10T18:26:27.241Z,95760.79
2019-01-10T18:28:59.818Z,95763.60
2019-01-10T18:31:32.467Z,95766.98
2019-01-10T18:34:05.237Z,95768.05
2019-01-10T18:36:37.896Z,95763.37
2019-01-10T18:39:10.625Z,95762.89
2019-01-10T18:41:43.265Z,95763.11
2019-01-10T18:44:16.018Z,95767.17
2019-01-10T18:46:49.937Z,95776.17
2019-01-10T18:49:22.706Z,95779.06
2019-01-10T18:51:55.709Z,95779.98
2019-01-10T18:54:28.606Z,95780.33
2019-01-10T18:57:01.207Z,95782.88
2019-01-10T18:59:33.853Z,95784.08
2019-01-10T19:02:06.597Z,95790.56
2019-01-10T19:04:39.228Z,95782.30
2019-01-10T19:07:11.831Z,95791.84
2019-01-10T19:09:44.634Z,95789.48
2019-01-10T19:12:17.280Z,95797.05
2019-01-10T19:14:49.900Z,95799.13
2019-01-10T19:17:26.096Z,95801.77
2019-01-10T19:19:56.959Z,95793.55
2019-01-10T19:22:29.519Z,95801.00
2019-01-10T19:25:02.098Z,95799.02
2019-01-10T19:27:34.876Z,95803.10
2019-01-10T19:30:14.923Z,95807.54
2019-01-10T19:32:47.746Z,95800.91
2019-01-10T19:35:20.493Z,95807.53
2019-01-10T19:37:54.275Z,95808.33
2019-01-10T19:40:26.865Z,95806.50
2019-01-10T19:42:59.511Z,95812.08
2019-01-10T19:45:32.139Z,95810.56
2019-01-10T19:48:09.642Z,95813.13
2019-01-10T19:50:39.394Z,95814.33
2019-01-10T19:53:12.410Z,95816.28
2019-01-10T19:55:45.057Z,95820.08
2019-01-10T19:58:17.767Z,95812.97
2019-01-10T20:00:55.019Z,95816.09
2019-01-10T20:03:27.664Z,95813.66
2019-01-10T20:06:00.375Z,95821.02
2019-01-10T20:08:33.013Z,95810.67
2019-01-10T20:11:05.828Z,95824.48
2019-01-10T20:13:38.479Z,95825.22
2019-01-10T20:16:11.237Z,95816.03
2019-01-10T20:18:45.960Z,95818.84
2019-01-10T20:21:18.558Z,95818.25
2019-01-10T20:23:51.145Z,95817.55
2019-01-10T20:26:23.797Z,95812.54
2019-01-10T20:28:55.796Z,95815.30
2019-01-10T20:31:28.459Z,95825.22
2019-01-10T20:34:01.067Z,95824.86
2019-01-10T20:36:33.755Z,95816.17
2019-01-10T20:39:09.343Z,95826.75
2019-01-10T20:41:41.932Z,95820.22
2019-01-10T20:44:14.715Z,95820.10
2019-01-10T20:46:47.377Z,95824.25
2019-01-10T20:49:20.247Z,95830.45
2019-01-10T20:51:52.878Z,95829.79
2019-01-10T20:54:25.581Z,95825.25
2019-01-10T20:56:58.275Z,95826.89
2019-01-10T20:59:30.941Z,95823.63
2019-01-10T21:02:03.591Z,95827.69
2019-01-10T21:04:36.252Z,95826.30
2019-01-10T21:07:14.291Z,95826.31
2019-01-10T21:09:46.992Z,95832.46
2019-01-10T21:12:19.735Z,95826.14
2019-01-10T21:14:52.485Z,95825.31
2019-01-10T21:17:25.213Z,95822.66
2019-01-10T21:19:58.048Z,95827.20
2019-01-10T21:22:30.634Z,95834.18
2019-01-10T21:25:03.378Z,95828.09
2019-01-10T21:27:36.165Z,95836.85
2019-01-10T21:30:12.918Z,95837.98
2019-01-10T21:32:46.880Z,95839.61
2019-01-10T21:35:20.051Z,95835.77
2019-01-10T21:37:52.734Z,95835.41
2019-01-10T21:40:25.853Z,95850.53
2019-01-10T21:42:58.511Z,95836.09
2019-01-10T21:45:31.287Z,95847.48
2019-01-10T21:48:03.977Z,95846.03
2019-01-10T21:50:36.613Z,95855.81
2019-01-10T21:53:09.227Z,95853.77
2019-01-10T21:55:41.846Z,95860.39
2019-01-10T21:58:14.543Z,95859.94
2019-01-10T22:00:47.186Z,95864.52
2019-01-10T22:03:19.914Z,95864.78
2019-01-10T22:05:52.788Z,95866.17
2019-01-10T22:08:25.738Z,95863.05
2019-01-10T22:11:01.266Z,95860.08
2019-01-10T22:13:32.697Z,95854.40
2019-01-10T22:16:05.523Z,95856.02
2019-01-10T22:18:41.426Z,95848.14
2019-01-10T22:21:12.417Z,95849.84
2019-01-10T22:23:45.480Z,95846.72
2019-01-10T22:26:18.132Z,95846.27
2019-01-10T22:28:50.721Z,95837.08
2019-01-10T22:31:23.428Z,95845.58
2019-01-10T22:33:56.077Z,95845.13
2019-01-10T22:36:27.967Z,95836.94
2019-01-10T22:39:00.584Z,95846.35
2019-01-10T22:41:33.152Z,95842.97
2019-01-10T22:44:05.786Z,95837.25
2019-01-10T22:46:38.589Z,95845.84
2019-01-10T22:49:11.193Z,95841.09
2019-01-10T22:51:43.832Z,95841.00
2019-01-10T22:54:16.447Z,95847.60
2019-01-10T22:56:49.059Z,95849.45
2019-01-10T22:59:22.023Z,95848.31
2019-01-10T23:01:59.327Z,95850.76
2019-01-10T23:04:38.313Z,95853.63
2019-01-10T23:07:22.053Z,95845.41
2019-01-10T23:10:03.026Z,95852.72
2019-01-10T23:12:36.912Z,95852.27
2019-01-10T23:15:33.629Z,95842.86
2019-01-10T23:18:07.871Z,95840.72
2019-01-10T23:20:39.875Z,95841.55
2019-01-10T23:23:13.813Z,95848.28
2019-01-10T23:25:52.978Z,95846.86
2019-01-10T23:28:25.818Z,95847.00
2019-01-10T23:31:00.910Z,95843.65
2019-01-10T23:33:33.655Z,95848.16
2019-01-10T23:36:07.369Z,95846.09
2019-01-10T23:38:39.969Z,95836.84
2019-01-10T23:41:12.582Z,95843.73
2019-01-10T23:43:45.224Z,95844.33
2019-01-10T23:46:17.827Z,95846.66
2019-01-10T23:48:50.427Z,95844.92
2019-01-10T23:51:23.061Z,95846.41
2019-01-10T23:53:55.601Z,95845.72
2019-01-10T23:56:28.227Z,95840.72
2019-01-10T23:59:00.806Z,95840.27
